Terminal Aerodrome Forecast
Issued by NWS Melbourne, FL

Home | Current Version | Previous Version | Text Only | Print | Product List | Glossary On
Versions: 1 2 3 4 5 6 7 8 9 10 11 12 13 14 15 16 17 18
269
FTUS42 KMLB 221142
TAFDAB
TAF
KDAB 221142Z 2212/2312 19008KT P6SM BKN015 WS015/22034KT
     FM221300 20014G24KT P6SM SCT015 BKN035
     FM222100 21018G28KT P6SM VCTS BKN035CB
      TEMPO 2222/2224 25020G40KT 2SM +TSRA
     FM230000 21015G22KT P6SM -RA VCTS BKN035CB
     FM230400 22015KT P6SM BKN035=

USA.gov is the U.S. government's official web portal to all federal, state and local government web resources and services.